createdAt,value
2022-10-18T00:04:13.438Z,308.73
2022-10-18T00:06:45.503Z,316.95
2022-10-18T00:09:14.734Z,237.18
2022-10-18T00:11:44.218Z,303.50
2022-10-18T00:14:14.450Z,311.58
2022-10-18T00:16:46.242Z,316.77
2022-10-18T00:19:19.897Z,318.35
2022-10-18T00:21:54.385Z,252.50
2022-10-18T00:24:23.623Z,251.50
2022-10-18T00:26:52.856Z,309.65
2022-10-18T00:29:22.239Z,247.35
2022-10-18T00:31:51.583Z,323.58
2022-10-18T00:34:21.592Z,335.70
2022-10-18T00:36:50.162Z,264.42
2022-10-18T00:39:20.658Z,342.80
2022-10-18T00:41:49.544Z,344.15
2022-10-18T00:47:44.281Z,224.73
2022-10-18T00:50:14.408Z,276.17
2022-10-18T00:52:45.095Z,263.45
2022-10-18T00:55:14.146Z,248.77
2022-10-18T00:57:43.918Z,196.95
2022-10-18T01:00:14.002Z,200.23
2022-10-18T01:02:46.597Z,187.43
2022-10-18T01:05:18.747Z,180.90
2022-10-18T01:07:59.682Z,204.27
2022-10-18T01:10:44.374Z,205.75
2022-10-18T01:16:00.823Z,176.55
2022-10-18T01:18:32.360Z,177.85
2022-10-18T01:21:19.308Z,182.45
2022-10-18T01:24:10.795Z,201.73
2022-10-18T01:27:04.782Z,217.73
2022-10-18T01:29:43.385Z,220.07
2022-10-18T01:32:15.615Z,221.25
2022-10-18T01:34:47.077Z,224.60
2022-10-18T01:37:18.418Z,253.45
2022-10-18T01:39:49.515Z,239.75
2022-10-18T01:42:22.127Z,252.77
2022-10-18T01:44:52.360Z,243.32
2022-10-18T01:47:24.258Z,254.43
2022-10-18T01:50:00.192Z,266.48
2022-10-18T01:52:29.477Z,220.10
2022-10-18T02:00:45.743Z,247.35
2022-10-18T02:03:37.785Z,235.88
2022-10-18T02:06:32.114Z,202.18
2022-10-18T03:30:18.458Z,250.35
2022-10-18T03:32:47.246Z,259.05
2022-10-18T03:35:16.605Z,271.73
2022-10-18T03:37:45.592Z,261.90
2022-10-18T03:40:14.891Z,249.75
2022-10-18T03:42:43.969Z,229.40
2022-10-18T03:45:12.885Z,256.90
2022-10-18T03:47:45.574Z,224.43
2022-10-18T03:50:15.407Z,216.60
2022-10-18T03:52:44.275Z,257.95
2022-10-18T03:55:12.748Z,268.52
2022-10-18T03:57:41.195Z,265.45
2022-10-18T04:00:10.951Z,234.23
2022-10-18T04:02:39.462Z,263.20
2022-10-18T04:05:10.779Z,224.43
2022-10-18T04:21:04.914Z,189.65
2022-10-18T04:23:36.342Z,225.60
2022-10-18T04:26:07.708Z,205.10
2022-10-18T04:28:39.891Z,247.88
2022-10-18T04:31:08.633Z,204.52
2022-10-18T04:33:37.236Z,223.13
2022-10-18T04:36:07.966Z,223.20
2022-10-18T04:38:36.741Z,194.43
2022-10-18T04:41:05.534Z,197.20
2022-10-18T04:43:34.084Z,219.45
2022-10-18T04:46:02.500Z,234.07
2022-10-18T04:48:31.081Z,197.25
2022-10-18T04:51:00.467Z,185.38
2022-10-18T04:53:30.374Z,196.65
2022-10-18T04:55:58.943Z,187.95
2022-10-18T04:58:30.526Z,200.23
2022-10-18T05:00:58.985Z,213.25
2022-10-18T05:03:27.493Z,213.93
2022-10-18T05:06:01.922Z,217.68
2022-10-18T05:08:33.813Z,205.77
2022-10-18T05:11:02.559Z,216.00
2022-10-18T05:13:31.567Z,228.57
2022-10-18T05:16:00.778Z,245.18
2022-10-18T05:18:29.444Z,244.15
2022-10-18T05:20:59.590Z,241.75
2022-10-18T05:23:28.256Z,228.90
2022-10-18T05:26:03.240Z,215.77
2022-10-18T05:28:39.757Z,242.45
2022-10-18T05:31:12.586Z,208.88
2022-10-18T05:33:42.598Z,197.45
2022-10-18T05:36:11.173Z,200.80
2022-10-18T05:38:42.864Z,227.20
2022-10-18T05:41:14.002Z,210.80
2022-10-18T05:43:42.824Z,225.52
2022-10-18T05:46:15.464Z,247.20
2022-10-18T05:48:44.837Z,323.02
2022-10-18T05:51:13.335Z,179.98
2022-10-18T05:53:42.036Z,179.38
2022-10-18T05:58:51.911Z,193.68
2022-10-18T06:01:20.877Z,179.05
2022-10-18T06:03:49.259Z,195.63
2022-10-18T06:06:18.341Z,166.90
2022-10-18T06:08:47.002Z,172.75
2022-10-18T06:11:33.125Z,207.52
2022-10-18T06:14:03.088Z,195.95
2022-10-18T06:16:32.752Z,203.85
2022-10-18T06:19:01.466Z,183.05
2022-10-18T06:21:30.146Z,190.23
2022-10-18T06:24:00.042Z,227.50
2022-10-18T06:26:29.818Z,203.43
2022-10-18T06:28:58.554Z,221.88
2022-10-18T06:31:28.545Z,227.23
2022-10-18T06:33:58.393Z,268.55
2022-10-18T06:36:26.843Z,266.90
2022-10-18T06:38:56.662Z,272.70
2022-10-18T06:41:39.469Z,269.42
2022-10-18T06:44:14.079Z,268.05
2022-10-18T06:46:44.841Z,241.32
2022-10-18T06:49:29.890Z,521.20
2022-10-18T06:51:58.543Z,257.52
2022-10-18T06:54:27.160Z,272.40
2022-10-18T06:56:58.673Z,271.30
2022-10-18T06:59:31.093Z,270.27
2022-10-18T07:02:01.602Z,281.60
2022-10-18T07:04:30.713Z,291.23
2022-10-18T07:06:59.458Z,277.13
2022-10-18T07:09:28.802Z,284.98
2022-10-18T07:11:57.902Z,249.60
2022-10-18T07:14:29.377Z,231.15
2022-10-18T07:17:01.769Z,239.95
2022-10-18T07:19:32.178Z,273.85
2022-10-18T07:22:00.865Z,274.95
2022-10-18T07:27:00.334Z,272.77
2022-10-18T07:29:29.207Z,296.38
2022-10-18T07:31:57.767Z,280.65
2022-10-18T07:34:29.012Z,275.05
2022-10-18T07:36:57.638Z,252.75
2022-10-18T07:39:26.000Z,283.30
2022-10-18T07:41:54.470Z,236.93
2022-10-18T07:44:23.034Z,265.88
2022-10-18T07:46:51.759Z,255.23
2022-10-18T07:49:20.270Z,250.23
2022-10-18T07:51:58.625Z,249.63
2022-10-18T07:54:27.235Z,247.70
2022-10-18T07:56:55.674Z,243.73
2022-10-18T07:59:24.230Z,235.57
2022-10-18T08:01:52.990Z,248.13
2022-10-18T08:04:21.866Z,250.13
2022-10-18T08:06:51.941Z,252.48
2022-10-18T08:09:20.442Z,239.27
2022-10-18T08:11:48.966Z,248.70
2022-10-18T08:14:17.425Z,262.10
2022-10-18T08:16:46.005Z,267.38
2022-10-18T08:19:14.416Z,264.27
2022-10-18T08:21:43.164Z,256.85
2022-10-18T08:24:12.997Z,276.08
2022-10-18T08:26:41.556Z,266.45
2022-10-18T08:29:22.168Z,248.07
2022-10-18T08:31:51.864Z,380.73
2022-10-18T08:34:20.322Z,256.80
2022-10-18T08:36:48.969Z,247.55
2022-10-18T08:39:18.749Z,265.50
2022-10-18T08:42:09.693Z,274.65
2022-10-18T08:44:43.632Z,407.10
2022-10-18T08:47:15.915Z,258.60
2022-10-18T08:49:47.790Z,267.00
2022-10-18T08:52:22.390Z,260.55
2022-10-18T08:54:57.687Z,269.95
2022-10-18T08:57:26.332Z,265.02
2022-10-18T08:59:54.711Z,264.17
2022-10-18T09:02:36.737Z,252.10
2022-10-18T09:05:11.873Z,248.32
2022-10-18T09:08:11.592Z,246.38
2022-10-18T09:10:51.039Z,235.60
2022-10-18T09:13:37.567Z,234.05
2022-10-18T09:16:07.723Z,233.45
2022-10-18T09:18:55.290Z,246.23
2022-10-18T09:21:28.506Z,299.85
2022-10-18T09:24:04.107Z,337.83
2022-10-18T09:26:41.946Z,267.65
2022-10-18T09:29:22.672Z,274.70
2022-10-18T09:31:57.557Z,282.33
2022-10-18T09:34:31.216Z,285.55
2022-10-18T09:37:00.198Z,285.15
2022-10-18T09:39:32.181Z,324.80
2022-10-18T09:42:06.591Z,321.77
2022-10-18T09:44:37.834Z,320.45
2022-10-18T09:47:16.552Z,327.80
2022-10-18T09:49:48.951Z,304.85
2022-10-18T09:52:21.057Z,310.88
2022-10-18T09:54:54.508Z,393.27
2022-10-18T09:57:27.761Z,325.23
2022-10-18T09:59:56.420Z,307.23
2022-10-18T10:02:25.626Z,600.65
2022-10-18T10:04:55.714Z,734.03
2022-10-18T10:07:29.817Z,644.47
2022-10-18T10:10:07.906Z,316.80
2022-10-18T10:12:42.197Z,307.27
2022-10-18T10:15:17.150Z,311.38
2022-10-18T10:17:48.856Z,314.20
2022-10-18T10:30:55.483Z,355.27
2022-10-18T10:33:34.012Z,357.98
2022-10-18T10:36:04.733Z,356.70
2022-10-18T10:38:33.760Z,360.50
2022-10-18T10:41:16.974Z,325.88
2022-10-18T11:03:27.480Z,323.48
2022-10-18T11:06:06.960Z,362.48
2022-10-18T11:08:41.364Z,313.95
2022-10-18T11:11:19.272Z,308.00
2022-10-18T11:14:07.304Z,316.33
2022-10-18T11:16:52.260Z,292.73
2022-10-18T11:19:34.317Z,300.30
2022-10-18T11:22:05.509Z,315.00
2022-10-18T11:24:35.125Z,303.50
2022-10-18T11:27:08.196Z,293.33
2022-10-18T11:29:55.393Z,319.92
2022-10-18T11:32:29.431Z,317.00
2022-10-18T11:38:06.449Z,366.77
2022-10-18T11:40:48.570Z,362.90
2022-10-18T11:43:20.841Z,366.10
2022-10-18T11:46:10.054Z,355.50
2022-10-18T11:49:01.004Z,355.15
2022-10-18T11:51:55.903Z,393.67
2022-10-18T11:54:51.372Z,357.63
2022-10-18T11:57:37.199Z,322.40
2022-10-18T12:00:17.253Z,336.40
2022-10-18T12:03:12.230Z,340.15
2022-10-18T12:05:42.702Z,346.05
2022-10-18T12:08:16.301Z,335.83
2022-10-18T12:11:04.104Z,345.95
2022-10-18T12:13:49.799Z,362.23
2022-10-18T12:19:14.043Z,382.50
2022-10-18T12:21:42.753Z,355.83
2022-10-18T12:38:16.960Z,346.48
2022-10-18T12:41:04.012Z,359.48
2022-10-18T12:43:37.032Z,350.58
2022-10-18T12:46:13.752Z,331.38
2022-10-18T12:48:59.134Z,344.63
2022-10-18T12:51:30.571Z,339.27
2022-10-18T12:54:15.784Z,350.23
2022-10-18T13:30:19.077Z,334.40
2022-10-18T13:36:37.018Z,285.50
2022-10-18T13:39:07.648Z,300.13
2022-10-18T13:42:23.064Z,293.60
2022-10-18T13:44:56.261Z,350.10
2022-10-18T13:50:36.894Z,314.08
2022-10-18T13:53:30.381Z,290.48
2022-10-18T14:50:03.239Z,284.20
2022-10-18T14:52:58.849Z,302.48
2022-10-18T14:58:34.164Z,293.88
2022-10-18T15:01:47.106Z,289.83
2022-10-18T16:12:01.048Z,335.40
2022-10-18T16:21:33.000Z,363.83
2022-10-18T16:24:06.882Z,381.70
2022-10-18T16:27:37.418Z,411.98
2022-10-18T16:30:13.113Z,383.83
2022-10-18T16:32:41.899Z,394.60
2022-10-18T16:37:55.317Z,408.38
2022-10-18T16:40:26.418Z,425.20
2022-10-18T16:42:59.607Z,400.90
2022-10-18T16:45:32.632Z,425.95
2022-10-18T16:48:01.755Z,450.17
2022-10-18T16:50:42.909Z,427.33
2022-10-18T16:53:18.475Z,443.13
2022-10-18T18:46:24.037Z,462.70
2022-10-18T18:48:52.739Z,484.40
2022-10-18T18:51:22.455Z,516.25
2022-10-18T18:53:51.172Z,535.75
2022-10-18T18:58:50.593Z,473.40
2022-10-18T19:01:37.481Z,498.67
2022-10-18T19:04:07.694Z,413.95
2022-10-18T19:06:37.818Z,494.55
2022-10-18T19:09:07.640Z,424.20
2022-10-18T19:11:39.136Z,472.08
2022-10-18T19:14:08.691Z,511.02
2022-10-18T19:16:40.020Z,435.08
2022-10-18T19:19:11.905Z,506.52
2022-10-18T19:21:42.391Z,513.80
2022-10-18T19:24:11.086Z,469.45
2022-10-18T19:26:44.567Z,506.17
2022-10-18T19:29:15.388Z,422.30
2022-10-18T19:31:45.509Z,470.42
2022-10-18T19:34:15.263Z,482.58
2022-10-18T19:36:45.259Z,479.88
2022-10-18T19:39:18.380Z,554.28
2022-10-18T19:55:13.528Z,522.15
2022-10-18T19:57:41.981Z,509.58
2022-10-18T20:00:13.200Z,573.05
2022-10-18T20:02:43.682Z,459.65
2022-10-18T20:08:46.046Z,542.45
2022-10-18T20:14:05.894Z,446.02
2022-10-18T20:16:37.506Z,563.90
2022-10-18T20:19:10.003Z,599.55
2022-10-18T20:21:41.865Z,569.60
2022-10-18T20:24:14.099Z,452.40
2022-10-18T20:26:43.795Z,441.73
2022-10-18T20:29:33.029Z,437.38
2022-10-18T20:32:03.743Z,427.60
2022-10-18T20:34:37.456Z,449.08
2022-10-18T20:37:08.312Z,431.35
2022-10-18T20:39:43.469Z,448.88
2022-10-18T20:42:12.304Z,533.45
2022-10-18T20:44:43.560Z,565.88
2022-10-18T20:47:12.125Z,451.40
2022-10-18T20:49:46.316Z,479.63
2022-10-18T20:52:14.932Z,499.10
2022-10-18T20:54:43.469Z,514.85
2022-10-18T20:57:12.002Z,405.13
2022-10-18T20:59:41.789Z,496.80
2022-10-18T21:02:12.113Z,454.65
2022-10-18T21:04:42.286Z,499.55
2022-10-18T21:07:11.081Z,523.08
2022-10-18T21:09:39.600Z,443.70
2022-10-18T21:12:08.160Z,553.90
2022-10-18T21:14:36.661Z,429.75
2022-10-18T21:17:06.723Z,486.17
2022-10-18T21:19:35.453Z,550.80
2022-10-18T21:22:04.090Z,457.90
2022-10-18T21:24:49.508Z,460.92
2022-10-18T21:27:18.132Z,424.35
2022-10-18T21:38:31.499Z,501.52
2022-10-18T21:41:00.200Z,484.70
2022-10-18T21:43:28.966Z,521.83
2022-10-18T21:46:01.140Z,502.17
2022-10-18T21:48:29.802Z,501.98
2022-10-18T21:51:02.715Z,472.02
2022-10-18T21:53:32.714Z,477.55
2022-10-18T21:56:06.908Z,459.85
2022-10-18T21:58:36.135Z,427.15
2022-10-18T22:01:08.793Z,452.95
2022-10-18T22:03:37.407Z,478.40
2022-10-18T22:06:09.453Z,471.13
2022-10-18T22:08:39.594Z,416.30
2022-10-18T22:11:09.787Z,427.85
2022-10-18T22:13:38.508Z,505.73
2022-10-18T22:16:08.458Z,485.58
2022-10-18T22:18:37.188Z,454.55
2022-10-18T22:21:07.547Z,493.92
2022-10-18T22:23:38.715Z,452.95
2022-10-18T22:26:09.307Z,548.70
2022-10-18T22:28:38.905Z,496.83
2022-10-18T22:31:08.156Z,488.10
2022-10-18T22:36:05.949Z,537.30
2022-10-18T22:38:35.134Z,499.10
2022-10-18T22:41:07.404Z,450.15
2022-10-18T22:43:36.093Z,476.92
2022-10-18T22:46:05.669Z,515.53
2022-10-18T22:48:34.359Z,333.90
2022-10-18T22:51:03.606Z,312.90
2022-10-18T22:53:32.905Z,325.83
2022-10-18T22:56:01.695Z,304.95
2022-10-18T22:58:31.946Z,303.92
2022-10-18T23:01:05.013Z,297.70
2022-10-18T23:03:33.774Z,309.58
2022-10-18T23:06:02.653Z,338.13
2022-10-18T23:08:32.460Z,357.02
2022-10-18T23:11:01.641Z,342.85
2022-10-18T23:13:33.408Z,344.52
2022-10-18T23:16:04.829Z,326.83
2022-10-18T23:18:33.786Z,300.27
2022-10-18T23:21:03.708Z,300.00
2022-10-18T23:23:34.891Z,290.55
2022-10-18T23:26:05.104Z,293.00
2022-10-18T23:28:37.372Z,306.35
2022-10-18T23:31:14.750Z,341.80
2022-10-18T23:36:30.033Z,361.02
2022-10-18T23:38:58.799Z,333.90
2022-10-18T23:41:27.821Z,313.15
2022-10-18T23:43:58.237Z,301.42
2022-10-18T23:46:27.009Z,309.83
2022-10-18T23:48:55.673Z,308.75
2022-10-18T23:51:24.161Z,315.52
2022-10-18T23:53:52.607Z,344.08
2022-10-18T23:56:21.210Z,329.60
2022-10-18T23:58:49.597Z,341.58
